createdAt,value
2022-11-05T00:00:44.327Z,73.60
2022-11-05T00:01:35.315Z,69.93
2022-11-05T00:02:25.744Z,67.20
2022-11-05T00:03:16.283Z,64.70
2022-11-05T00:04:06.991Z,67.12
2022-11-05T00:04:57.583Z,69.62
2022-11-05T00:05:47.959Z,67.25
2022-11-05T00:06:38.991Z,71.30
2022-11-05T00:07:39.591Z,70.07
2022-11-05T00:08:30.484Z,68.85
2022-11-05T00:09:20.909Z,69.90
2022-11-05T00:10:05.299Z,71.90
2022-11-05T00:10:38.829Z,68.50
2022-11-05T00:11:16.858Z,71.70
2022-11-05T00:12:09.554Z,77.35
2022-11-05T00:12:59.881Z,72.45
2022-11-05T00:13:50.182Z,62.25
2022-11-05T00:14:40.440Z,74.90
2022-11-05T00:15:30.837Z,67.23
2022-11-05T00:16:21.258Z,64.12
2022-11-05T00:16:53.438Z,68.60
2022-11-05T00:17:25.400Z,64.30
2022-11-05T00:17:57.201Z,69.80
2022-11-05T00:18:29.471Z,71.40
2022-11-05T00:19:07.031Z,69.05
2022-11-05T00:19:38.857Z,69.35
2022-11-05T00:20:13.701Z,66.95
2022-11-05T00:20:45.597Z,61.80
2022-11-05T00:21:40.676Z,64.85
2022-11-05T00:22:31.517Z,64.95
2022-11-05T00:23:23.676Z,68.95
2022-11-05T00:24:27.740Z,60.78
2022-11-05T00:25:14.749Z,61.97
2022-11-05T00:25:55.296Z,65.05
2022-11-05T00:26:27.096Z,62.42
2022-11-05T00:26:59.507Z,61.67
2022-11-05T00:27:33.469Z,67.68
2022-11-05T00:28:05.308Z,63.15
2022-11-05T00:28:37.930Z,61.65
2022-11-05T00:29:10.532Z,64.28
2022-11-05T00:29:43.358Z,65.85
2022-11-05T00:30:18.540Z,65.70
2022-11-05T00:30:50.488Z,58.90
2022-11-05T00:31:22.363Z,59.35
2022-11-05T00:31:54.226Z,54.35
2022-11-05T00:32:26.093Z,59.40
2022-11-05T00:33:02.607Z,58.22
2022-11-05T00:33:34.523Z,57.33
2022-11-05T00:34:06.389Z,55.10
2022-11-05T00:34:38.228Z,55.90
2022-11-05T00:35:10.317Z,54.85
2022-11-05T00:35:42.136Z,57.42
2022-11-05T00:36:14.067Z,59.00
2022-11-05T00:36:45.989Z,53.90
2022-11-05T00:37:17.793Z,57.47
2022-11-05T00:37:50.601Z,55.10
2022-11-05T00:38:22.984Z,57.03
2022-11-05T00:38:54.840Z,59.88
2022-11-05T00:39:26.676Z,60.15
2022-11-05T00:39:58.689Z,55.22
2022-11-05T00:40:30.627Z,52.78
2022-11-05T00:41:02.560Z,54.25
2022-11-05T00:41:34.435Z,51.67
2022-11-05T00:42:24.801Z,57.92
2022-11-05T00:43:15.533Z,58.08
2022-11-05T00:44:06.214Z,47.22
2022-11-05T00:44:56.666Z,52.17
2022-11-05T00:45:29.734Z,48.30
2022-11-05T00:46:01.641Z,47.60
2022-11-05T00:46:33.471Z,49.28
2022-11-05T00:47:37.850Z,51.05
2022-11-05T00:48:28.182Z,47.90
2022-11-05T00:49:19.087Z,50.42
2022-11-05T00:49:50.923Z,44.20
2022-11-05T00:50:23.311Z,45.63
2022-11-05T00:50:55.224Z,49.08
2022-11-05T00:51:27.072Z,44.00
2022-11-05T00:52:17.591Z,48.28
2022-11-05T00:53:00.475Z,44.50
2022-11-05T00:53:32.639Z,45.00
2022-11-05T00:54:04.916Z,45.53
2022-11-05T00:54:36.736Z,45.58
2022-11-05T00:55:08.664Z,46.05
2022-11-05T00:55:42.489Z,44.65
2022-11-05T00:56:14.319Z,49.25
2022-11-05T00:56:46.118Z,45.65
2022-11-05T00:57:17.959Z,47.92
2022-11-05T00:57:50.113Z,43.20
2022-11-05T00:58:23.245Z,44.95
2022-11-05T00:58:56.328Z,39.03
2022-11-05T00:59:28.497Z,37.75
2022-11-05T01:00:00.378Z,41.60
2022-11-05T01:00:33.808Z,31.52
2022-11-05T01:01:06.265Z,32.63
2022-11-05T01:01:38.252Z,36.72
2022-11-05T01:02:10.302Z,30.02
2022-11-05T01:02:42.425Z,27.77
2022-11-05T01:03:16.585Z,29.05
2022-11-05T01:03:51.631Z,31.35
2022-11-05T01:04:23.652Z,25.37
2022-11-05T01:04:55.769Z,27.52
2022-11-05T01:05:28.629Z,23.60
2022-11-05T01:06:20.676Z,26.25
2022-11-05T01:06:52.479Z,26.12
2022-11-05T01:07:24.294Z,26.67
2022-11-05T01:07:56.313Z,23.45
2022-11-05T01:08:28.352Z,21.62
2022-11-05T01:09:00.199Z,26.58
2022-11-05T01:09:32.079Z,24.45
2022-11-05T01:10:04.497Z,26.10
2022-11-05T01:10:44.126Z,23.52
2022-11-05T01:11:34.351Z,26.10
2022-11-05T01:12:06.290Z,21.77
2022-11-05T01:12:38.112Z,25.48
2022-11-05T01:13:13.159Z,23.02
2022-11-05T01:13:45.298Z,22.83
2022-11-05T01:14:17.299Z,19.80
2022-11-05T01:14:49.181Z,24.40
2022-11-05T01:15:21.965Z,23.55
2022-11-05T01:15:54.437Z,25.12
2022-11-05T01:16:26.262Z,24.98
2022-11-05T01:16:58.098Z,21.95
2022-11-05T01:17:29.959Z,21.55
2022-11-05T01:18:01.802Z,24.83
2022-11-05T01:18:33.819Z,21.52
2022-11-05T01:19:07.483Z,26.25
2022-11-05T01:19:39.519Z,20.55
2022-11-05T01:20:12.300Z,22.50
2022-11-05T01:20:44.585Z,23.80
2022-11-05T01:21:16.802Z,26.85
2022-11-05T01:21:48.679Z,23.15
2022-11-05T01:22:20.532Z,24.75
2022-11-05T01:22:52.459Z,25.42
2022-11-05T01:23:24.334Z,22.77
2022-11-05T01:23:56.154Z,22.65
2022-11-05T01:24:28.140Z,28.20
2022-11-05T01:25:00.081Z,20.83
2022-11-05T01:25:31.928Z,19.65
2022-11-05T01:26:04.102Z,22.75
2022-11-05T01:26:35.930Z,18.75
2022-11-05T01:27:07.856Z,19.35
2022-11-05T01:27:40.003Z,20.45
2022-11-05T01:28:11.931Z,18.95
2022-11-05T01:28:43.831Z,20.37
2022-11-05T01:29:15.784Z,20.95
2022-11-05T01:29:47.685Z,17.10
2022-11-05T01:30:19.644Z,22.55
2022-11-05T01:30:56.533Z,19.65
2022-11-05T01:31:29.184Z,17.77
2022-11-05T01:32:01.021Z,16.02
2022-11-05T01:32:33.822Z,17.08
2022-11-05T01:33:05.917Z,19.42
2022-11-05T01:33:37.747Z,16.73
2022-11-05T01:34:09.588Z,16.35
2022-11-05T01:34:41.440Z,15.88
2022-11-05T01:35:15.713Z,17.55
2022-11-05T01:35:50.124Z,14.00
2022-11-05T01:36:22.044Z,15.98
2022-11-05T01:36:54.161Z,14.32
2022-11-05T01:37:25.971Z,13.90
2022-11-05T01:37:57.819Z,14.85
2022-11-05T01:38:29.639Z,14.45
2022-11-05T01:39:01.976Z,16.75
2022-11-05T01:39:33.913Z,15.77
2022-11-05T01:40:07.652Z,14.43
2022-11-05T01:40:42.884Z,18.27
2022-11-05T01:41:14.847Z,12.45
2022-11-05T01:41:47.049Z,13.30
2022-11-05T01:42:25.093Z,19.25
2022-11-05T01:42:56.931Z,18.30
2022-11-05T01:44:05.280Z,15.20
2022-11-05T01:44:52.302Z,14.98
2022-11-05T01:45:28.534Z,14.35
2022-11-05T01:46:00.750Z,14.32
2022-11-05T01:46:42.912Z,18.37
2022-11-05T01:47:44.411Z,14.40
2022-11-05T01:48:27.355Z,12.95
2022-11-05T01:49:10.590Z,17.25
2022-11-05T01:49:42.444Z,13.38
2022-11-05T01:50:41.926Z,15.25
2022-11-05T01:51:17.483Z,13.60
2022-11-05T01:51:51.336Z,14.45
2022-11-05T01:52:24.519Z,14.38
2022-11-05T01:53:11.947Z,19.33
2022-11-05T01:53:52.921Z,15.38
2022-11-05T01:54:29.586Z,12.50
2022-11-05T01:55:03.023Z,16.12
2022-11-05T01:55:39.567Z,14.77
2022-11-05T01:56:36.582Z,12.10
2022-11-05T01:57:11.105Z,13.35
2022-11-05T01:57:42.903Z,14.73
2022-11-05T01:58:19.497Z,12.75
2022-11-05T01:59:06.338Z,17.17
2022-11-05T01:59:43.293Z,13.15
2022-11-05T02:00:16.889Z,12.88
2022-11-05T02:00:49.085Z,17.17
2022-11-05T02:01:21.381Z,14.73
2022-11-05T02:01:54.307Z,12.40
2022-11-05T02:02:27.042Z,13.10
2022-11-05T02:02:59.126Z,12.95
2022-11-05T02:03:31.889Z,11.43
2022-11-05T02:04:10.111Z,17.23
2022-11-05T02:04:51.943Z,13.45
2022-11-05T02:05:23.955Z,12.88
2022-11-05T02:05:57.627Z,12.73
2022-11-05T02:06:31.880Z,12.10
2022-11-05T02:07:05.597Z,16.12
2022-11-05T02:07:37.482Z,11.50
2022-11-05T02:08:22.455Z,13.88
2022-11-05T02:09:06.494Z,12.63
2022-11-05T02:09:59.289Z,12.07
2022-11-05T02:10:32.042Z,16.08
2022-11-05T02:11:04.119Z,12.85
2022-11-05T02:11:35.965Z,12.85
2022-11-05T02:12:09.474Z,10.68
2022-11-05T02:12:44.899Z,13.88
2022-11-05T02:13:16.771Z,12.00
2022-11-05T02:13:49.824Z,19.92
2022-11-05T02:14:21.952Z,14.75
2022-11-05T02:14:53.870Z,13.73
2022-11-05T02:15:55.805Z,15.70
2022-11-05T02:17:03.725Z,9.75
2022-11-05T02:17:51.352Z,13.50
2022-11-05T02:18:29.173Z,17.30
2022-11-05T02:19:18.868Z,14.52
2022-11-05T02:20:31.430Z,10.82
2022-11-05T02:21:34.793Z,15.95
2022-11-05T02:22:34.422Z,14.68
2022-11-05T02:23:09.499Z,15.93
2022-11-05T02:23:59.833Z,11.52
2022-11-05T02:25:02.024Z,12.68
2022-11-05T02:25:51.842Z,12.18
2022-11-05T02:26:45.154Z,12.95
2022-11-05T02:27:26.356Z,14.43
2022-11-05T02:28:29.300Z,11.23
2022-11-05T02:29:07.047Z,11.55
2022-11-05T02:29:57.853Z,10.45
2022-11-05T02:30:41.366Z,15.05
2022-11-05T02:31:36.434Z,8.82
2022-11-05T02:32:31.728Z,10.65
2022-11-05T02:33:29.846Z,13.57
2022-11-05T02:34:27.330Z,12.70
2022-11-05T02:35:16.187Z,13.62
2022-11-05T02:36:25.215Z,9.63
2022-11-05T02:37:21.813Z,10.65
2022-11-05T02:38:06.500Z,10.57
2022-11-05T02:38:41.101Z,10.20
2022-11-05T02:39:40.617Z,11.18
2022-11-05T02:40:19.209Z,11.70
2022-11-05T02:41:08.738Z,10.25
2022-11-05T02:41:52.939Z,12.93
2022-11-05T02:42:52.390Z,9.68
2022-11-05T02:43:29.494Z,8.30
2022-11-05T02:44:28.320Z,7.32
2022-11-05T02:45:31.994Z,8.20
2022-11-05T02:46:12.337Z,6.65
2022-11-05T02:47:28.778Z,9.98
2022-11-05T02:48:14.088Z,10.10
2022-11-05T02:48:50.365Z,7.85
2022-11-05T02:49:56.227Z,6.47
2022-11-05T02:50:37.316Z,16.17
2022-11-05T02:51:20.660Z,8.27
2022-11-05T02:51:59.373Z,9.63
2022-11-05T02:53:00.396Z,9.38
2022-11-05T02:53:42.770Z,7.32
2022-11-05T02:54:24.611Z,8.55
2022-11-05T02:55:08.711Z,6.82
2022-11-05T02:55:59.326Z,6.47
2022-11-05T02:56:35.443Z,10.68
2022-11-05T02:57:07.302Z,6.37
2022-11-05T02:57:44.823Z,8.20
2022-11-05T02:58:16.936Z,9.50
2022-11-05T02:58:49.135Z,12.63
2022-11-05T02:59:21.001Z,11.43
2022-11-05T03:00:07.168Z,9.32
2022-11-05T03:00:57.818Z,9.27
2022-11-05T03:01:29.856Z,8.63
2022-11-05T03:02:03.427Z,10.55
2022-11-05T03:02:35.787Z,9.07
2022-11-05T03:03:36.577Z,8.80
2022-11-05T03:04:11.938Z,6.80
2022-11-05T03:04:43.781Z,11.93
2022-11-05T03:05:15.631Z,9.05
2022-11-05T03:06:22.462Z,6.30
2022-11-05T03:07:20.389Z,8.40
2022-11-05T03:08:01.506Z,6.78
2022-11-05T03:08:54.487Z,8.00
2022-11-05T03:09:26.594Z,3.50
2022-11-05T03:10:04.668Z,5.45
2022-11-05T03:10:57.914Z,4.30
2022-11-05T03:11:32.897Z,4.78
2022-11-05T03:12:29.036Z,29.70
2022-11-05T03:13:23.098Z,4.85
2022-11-05T03:14:20.498Z,3.47
2022-11-05T03:15:11.408Z,3.80
2022-11-05T03:15:57.249Z,4.15
2022-11-05T03:16:59.883Z,4.05
2022-11-05T03:17:52.502Z,2.47
2022-11-05T03:18:47.604Z,2.75
2022-11-05T03:19:39.946Z,6.78
2022-11-05T03:20:25.792Z,2.97
2022-11-05T03:21:17.972Z,3.45
2022-11-05T03:22:06.466Z,5.05
2022-11-05T03:23:00.658Z,3.35
2022-11-05T03:23:47.048Z,2.20
2022-11-05T03:24:28.360Z,2.87
2022-11-05T03:25:07.290Z,2.58
2022-11-05T03:25:53.826Z,3.60
2022-11-05T03:26:33.580Z,4.00
2022-11-05T03:27:23.863Z,4.87
2022-11-05T03:28:00.563Z,4.15
2022-11-05T03:28:36.557Z,2.62
2022-11-05T03:29:32.903Z,2.55
2022-11-05T03:30:10.624Z,2.53
2022-11-05T03:30:44.746Z,2.58
2022-11-05T03:31:18.322Z,2.10
2022-11-05T03:31:53.588Z,10.82
2022-11-05T03:32:27.287Z,2.83
2022-11-05T03:33:03.594Z,2.58
2022-11-05T03:33:38.581Z,7.30
2022-11-05T03:34:12.736Z,5.75
2022-11-05T03:34:51.721Z,2.22
2022-11-05T03:35:28.642Z,4.32
2022-11-05T03:36:06.458Z,3.42
2022-11-05T03:36:44.368Z,2.42
2022-11-05T03:37:20.134Z,3.08
2022-11-05T03:37:57.241Z,3.22
2022-11-05T03:38:34.174Z,5.05
2022-11-05T03:39:10.968Z,2.83
2022-11-05T03:39:47.526Z,2.75
2022-11-05T03:40:23.495Z,2.17
2022-11-05T03:40:59.643Z,2.95
2022-11-05T03:41:34.433Z,2.60
2022-11-05T03:42:09.939Z,3.12
2022-11-05T03:42:47.301Z,2.45
2022-11-05T03:43:22.175Z,2.58
2022-11-05T03:43:59.479Z,3.50
2022-11-05T03:44:36.612Z,2.67
2022-11-05T03:45:16.273Z,3.47
2022-11-05T03:45:53.854Z,2.70
2022-11-05T03:46:30.436Z,5.00
2022-11-05T03:47:06.918Z,2.83
2022-11-05T03:47:43.061Z,2.45
2022-11-05T03:48:16.896Z,2.62
2022-11-05T03:48:52.996Z,5.22
2022-11-05T03:49:33.190Z,2.33
2022-11-05T03:50:16.179Z,2.85
2022-11-05T03:50:59.620Z,4.80
2022-11-05T03:52:00.782Z,3.03
2022-11-05T03:52:40.178Z,2.85
2022-11-05T03:53:24.005Z,3.03
2022-11-05T03:54:02.643Z,2.53
2022-11-05T03:54:35.105Z,2.95
2022-11-05T03:55:07.396Z,2.33
2022-11-05T03:56:04.425Z,3.03
2022-11-05T03:56:42.441Z,1.95
2022-11-05T03:57:17.081Z,2.80
2022-11-05T03:57:51.596Z,2.58
2022-11-05T03:58:24.869Z,3.72
2022-11-05T03:58:59.392Z,3.75
2022-11-05T03:59:32.771Z,4.50
2022-11-05T04:00:08.377Z,4.00
2022-11-05T04:00:43.493Z,2.78
2022-11-05T04:01:16.270Z,2.92
2022-11-05T04:01:49.385Z,2.67
2022-11-05T04:02:25.915Z,2.95
2022-11-05T04:02:58.012Z,2.17
2022-11-05T04:03:36.212Z,2.15
2022-11-05T04:04:09.509Z,4.75
2022-11-05T04:04:41.763Z,2.05
2022-11-05T04:05:13.846Z,1.95
2022-11-05T04:06:06.058Z,3.65
2022-11-05T04:06:56.926Z,2.10
2022-11-05T04:07:47.320Z,4.07
2022-11-05T04:08:37.848Z,2.25
2022-11-05T04:09:29.236Z,2.03
2022-11-05T04:10:19.490Z,2.50
2022-11-05T04:11:09.936Z,2.83
2022-11-05T04:12:00.843Z,3.65
2022-11-05T04:12:51.257Z,4.50
2022-11-05T04:13:25.853Z,7.45
2022-11-05T04:13:57.695Z,4.97
2022-11-05T04:14:30.882Z,3.22
2022-11-05T04:15:02.974Z,4.35
2022-11-05T04:15:54.768Z,4.47
2022-11-05T04:16:45.175Z,2.90
2022-11-05T04:17:17.291Z,3.20
2022-11-05T04:17:49.116Z,2.95
2022-11-05T04:18:21.034Z,5.30
2022-11-05T04:18:52.866Z,3.80
2022-11-05T04:19:43.407Z,3.53
2022-11-05T04:20:33.934Z,3.53
2022-11-05T04:21:25.670Z,4.45
2022-11-05T04:22:16.003Z,4.03
2022-11-05T04:23:07.062Z,3.53
2022-11-05T04:23:57.510Z,3.75
2022-11-05T04:24:29.324Z,2.05
2022-11-05T04:25:01.131Z,2.60
2022-11-05T04:25:33.074Z,2.78
2022-11-05T04:26:05.022Z,1.70
2022-11-05T04:26:43.669Z,2.58
2022-11-05T04:27:15.547Z,5.43
2022-11-05T04:27:48.159Z,3.17
2022-11-05T04:28:20.295Z,2.45
2022-11-05T04:29:11.298Z,2.03
2022-11-05T04:30:01.721Z,2.45
2022-11-05T04:30:33.542Z,2.78
2022-11-05T04:31:05.479Z,4.07
2022-11-05T04:31:38.049Z,2.53
2022-11-05T04:32:09.876Z,3.17
2022-11-05T04:32:41.744Z,2.12
2022-11-05T04:33:15.810Z,3.20
2022-11-05T04:33:47.976Z,3.72
2022-11-05T04:34:21.989Z,2.45
2022-11-05T04:34:53.963Z,2.78
2022-11-05T04:35:28.094Z,4.20
2022-11-05T04:36:00.338Z,2.65
2022-11-05T04:36:32.164Z,2.50
2022-11-05T04:37:04.062Z,3.15
2022-11-05T04:37:35.889Z,3.00
2022-11-05T04:38:11.117Z,3.20
2022-11-05T04:38:43.001Z,5.43
2022-11-05T04:39:16.043Z,5.18
2022-11-05T04:39:47.858Z,2.50
2022-11-05T04:40:19.746Z,3.03
2022-11-05T04:40:51.532Z,2.50
2022-11-05T04:41:23.744Z,2.33
2022-11-05T04:41:55.567Z,3.00
2022-11-05T04:42:28.252Z,3.25
2022-11-05T04:43:01.005Z,3.33
2022-11-05T04:43:32.827Z,3.17
2022-11-05T04:44:04.666Z,2.15
2022-11-05T04:44:37.126Z,4.10
2022-11-05T04:45:09.018Z,3.03
2022-11-05T04:45:41.199Z,3.53
2022-11-05T04:46:13.073Z,3.78
2022-11-05T04:46:44.975Z,3.08
2022-11-05T04:47:16.804Z,3.08
2022-11-05T04:47:48.810Z,2.80
2022-11-05T04:48:20.719Z,3.50
2022-11-05T04:48:52.521Z,3.20
2022-11-05T04:49:24.368Z,3.37
2022-11-05T04:49:56.576Z,3.78
2022-11-05T04:50:28.579Z,2.87
2022-11-05T04:51:00.511Z,3.95
2022-11-05T04:51:32.369Z,3.15
2022-11-05T04:52:04.233Z,3.17
2022-11-05T04:52:36.199Z,5.37
2022-11-05T04:53:08.207Z,2.90
2022-11-05T04:53:40.221Z,3.53
2022-11-05T04:54:12.072Z,4.82
2022-11-05T04:54:44.135Z,4.57
2022-11-05T04:55:16.342Z,3.25
2022-11-05T04:55:48.163Z,4.35
2022-11-05T04:56:22.478Z,3.42
2022-11-05T04:56:54.276Z,3.75
2022-11-05T04:57:26.099Z,2.90
2022-11-05T04:57:57.936Z,4.72
2022-11-05T04:58:29.782Z,3.30
2022-11-05T04:59:01.637Z,3.97
2022-11-05T04:59:33.425Z,4.05
2022-11-05T05:00:07.409Z,6.78
2022-11-05T05:00:39.752Z,4.28
2022-11-05T05:01:14.657Z,3.40
2022-11-05T05:01:46.576Z,2.80
2022-11-05T05:02:18.469Z,2.72
2022-11-05T05:02:50.467Z,6.40
2022-11-05T05:03:22.333Z,4.43
2022-11-05T05:03:54.734Z,3.83
2022-11-05T05:04:26.562Z,3.05
2022-11-05T05:04:58.448Z,3.97
2022-11-05T05:05:30.652Z,3.30
2022-11-05T05:06:04.177Z,3.92
2022-11-05T05:06:36.485Z,4.85
2022-11-05T05:07:08.282Z,3.33
2022-11-05T05:07:41.145Z,3.62
2022-11-05T05:08:13.002Z,4.80
2022-11-05T05:08:46.808Z,5.53
2022-11-05T05:09:18.627Z,3.83
2022-11-05T05:09:50.608Z,4.25
2022-11-05T05:10:22.434Z,4.62
2022-11-05T05:10:54.306Z,2.87
2022-11-05T05:11:26.483Z,4.05
2022-11-05T05:11:58.325Z,4.45
2022-11-05T05:12:30.161Z,4.85
2022-11-05T05:13:01.969Z,4.97
2022-11-05T05:13:34.488Z,3.65
2022-11-05T05:14:06.331Z,3.08
2022-11-05T05:14:38.288Z,3.30
2022-11-05T05:15:10.124Z,3.90
2022-11-05T05:15:41.990Z,3.17
2022-11-05T05:16:25.295Z,4.55
2022-11-05T05:16:57.399Z,4.75
2022-11-05T05:17:29.207Z,3.53
2022-11-05T05:18:01.216Z,3.62
2022-11-05T05:18:33.489Z,5.30
2022-11-05T05:19:05.395Z,5.37
2022-11-05T05:19:57.167Z,3.20
2022-11-05T05:20:47.548Z,4.20
2022-11-05T05:21:39.725Z,5.15
2022-11-05T05:22:11.851Z,3.85
2022-11-05T05:22:43.694Z,4.93
2022-11-05T05:23:15.495Z,5.45
2022-11-05T05:23:48.560Z,4.80
2022-11-05T05:24:21.224Z,5.12
2022-11-05T05:24:53.263Z,5.22
2022-11-05T05:25:25.451Z,4.50
2022-11-05T05:26:00.505Z,3.40
2022-11-05T05:26:32.350Z,4.40
2022-11-05T05:27:04.200Z,5.00
2022-11-05T05:27:36.368Z,6.25
2022-11-05T05:28:08.183Z,4.90
2022-11-05T05:28:40.065Z,5.43
2022-11-05T05:29:12.441Z,4.80
2022-11-05T05:29:44.334Z,7.03
2022-11-05T05:30:16.296Z,4.55
2022-11-05T05:30:48.133Z,4.47
2022-11-05T05:31:20.837Z,4.90
2022-11-05T05:31:52.627Z,5.47
2022-11-05T05:32:25.889Z,3.42
2022-11-05T05:33:01.989Z,3.08
2022-11-05T05:33:33.874Z,3.42
2022-11-05T05:34:06.769Z,5.82
2022-11-05T05:34:38.571Z,5.15
2022-11-05T05:35:10.524Z,4.07
2022-11-05T05:35:42.326Z,4.37
2022-11-05T05:36:14.323Z,4.87
2022-11-05T05:36:46.211Z,6.90
2022-11-05T05:37:18.350Z,4.90
2022-11-05T05:37:55.213Z,6.55
2022-11-05T05:38:28.012Z,6.10
2022-11-05T05:38:59.876Z,4.43
2022-11-05T05:39:31.693Z,5.40
2022-11-05T05:40:03.558Z,4.47
2022-11-05T05:40:35.615Z,6.45
2022-11-05T05:41:07.427Z,3.97
2022-11-05T05:41:39.443Z,6.70
2022-11-05T05:42:12.130Z,3.87
2022-11-05T05:42:43.919Z,5.43
2022-11-05T05:43:15.799Z,7.97
2022-11-05T05:43:47.979Z,5.75
2022-11-05T05:44:19.881Z,5.15
2022-11-05T05:44:51.741Z,5.65
2022-11-05T05:45:24.215Z,4.57
2022-11-05T05:45:57.376Z,6.03
2022-11-05T05:46:29.209Z,4.37
2022-11-05T05:47:01.023Z,4.40
2022-11-05T05:47:32.869Z,4.65
2022-11-05T05:48:05.387Z,4.75
2022-11-05T05:48:37.498Z,4.93
2022-11-05T05:49:12.470Z,5.37
2022-11-05T05:49:44.560Z,4.62
2022-11-05T05:50:16.474Z,6.18
2022-11-05T05:51:05.104Z,9.80
2022-11-05T05:51:37.125Z,4.87
2022-11-05T05:52:08.959Z,7.03
2022-11-05T05:52:40.771Z,9.90
2022-11-05T05:53:12.950Z,5.85
2022-11-05T05:53:45.380Z,4.95
2022-11-05T05:54:17.542Z,6.07
2022-11-05T05:54:49.446Z,5.68
2022-11-05T05:55:21.338Z,5.12
2022-11-05T05:55:54.387Z,5.32
2022-11-05T05:56:26.237Z,6.18
2022-11-05T05:56:58.043Z,5.35
2022-11-05T05:57:29.885Z,6.82
2022-11-05T05:58:01.707Z,5.40
2022-11-05T05:58:37.043Z,5.22
2022-11-05T05:59:08.891Z,6.15
2022-11-05T05:59:41.017Z,3.87
2022-11-05T06:00:13.846Z,4.43
2022-11-05T06:00:46.351Z,4.45
2022-11-05T06:01:19.849Z,4.30
2022-11-05T06:01:52.278Z,4.60
2022-11-05T06:02:24.335Z,5.90
2022-11-05T06:02:56.618Z,7.50
2022-11-05T06:03:28.528Z,4.68
2022-11-05T06:04:00.382Z,4.53
2022-11-05T06:04:32.223Z,4.03
2022-11-05T06:05:04.262Z,5.00
2022-11-05T06:05:36.093Z,5.07
2022-11-05T06:06:15.411Z,4.72
2022-11-05T06:06:47.427Z,4.68
2022-11-05T06:07:19.222Z,10.98
2022-11-05T06:07:58.041Z,8.75
2022-11-05T06:08:30.301Z,5.70
2022-11-05T06:09:02.241Z,5.75
2022-11-05T06:09:34.060Z,6.00
2022-11-05T06:10:06.417Z,4.68
2022-11-05T06:10:38.447Z,4.53
2022-11-05T06:11:12.491Z,6.00
2022-11-05T06:11:44.540Z,4.47
2022-11-05T06:12:16.359Z,4.03
2022-11-05T06:12:48.266Z,5.05
2022-11-05T06:13:20.230Z,10.27
2022-11-05T06:13:52.079Z,4.72
2022-11-05T06:14:23.931Z,5.35
2022-11-05T06:14:55.846Z,7.28
2022-11-05T06:15:30.536Z,4.15
2022-11-05T06:16:08.500Z,4.75
2022-11-05T06:16:40.928Z,6.72
2022-11-05T06:17:12.739Z,5.87
2022-11-05T06:17:44.946Z,5.57
2022-11-05T06:18:16.871Z,5.18
2022-11-05T06:18:49.375Z,5.43
2022-11-05T06:19:21.294Z,7.25
2022-11-05T06:19:53.136Z,22.00
2022-11-05T06:20:24.968Z,11.70
2022-11-05T06:21:01.911Z,9.80
2022-11-05T06:21:34.809Z,7.68
2022-11-05T06:22:06.991Z,6.20
2022-11-05T06:22:39.220Z,5.55
2022-11-05T06:23:11.285Z,4.95
2022-11-05T06:23:45.207Z,5.22
2022-11-05T06:24:17.026Z,4.80
2022-11-05T06:24:48.889Z,5.57
2022-11-05T06:25:20.736Z,7.15
2022-11-05T06:25:52.541Z,5.75
2022-11-05T06:26:24.372Z,6.10
2022-11-05T06:26:56.197Z,6.18
2022-11-05T06:27:31.958Z,6.60
2022-11-05T06:28:03.905Z,5.43
2022-11-05T06:28:36.205Z,5.90
2022-11-05T06:29:08.618Z,7.15
2022-11-05T06:29:40.576Z,6.05
2022-11-05T06:30:13.276Z,7.55
2022-11-05T06:30:51.728Z,5.70
2022-11-05T06:31:24.026Z,6.43
2022-11-05T06:31:55.840Z,6.75
2022-11-05T06:32:27.832Z,5.05
2022-11-05T06:33:05.919Z,5.90
2022-11-05T06:33:38.351Z,5.47
2022-11-05T06:34:10.361Z,6.35
2022-11-05T06:34:42.176Z,7.30
2022-11-05T06:35:14.203Z,5.72
2022-11-05T06:35:46.346Z,7.72
2022-11-05T06:36:19.299Z,6.03
2022-11-05T06:36:51.115Z,6.35
2022-11-05T06:37:22.932Z,5.45
2022-11-05T06:37:59.487Z,5.28
2022-11-05T06:38:34.062Z,5.47
2022-11-05T06:39:09.734Z,9.60
2022-11-05T06:39:41.590Z,6.15
2022-11-05T06:40:13.428Z,6.10
2022-11-05T06:40:45.262Z,7.80
2022-11-05T06:41:17.107Z,7.18
2022-11-05T06:42:18.036Z,5.32
2022-11-05T06:42:41.512Z,6.70
2022-11-05T06:43:13.730Z,6.85
2022-11-05T06:43:46.206Z,6.00
2022-11-05T06:44:18.045Z,6.40
2022-11-05T06:44:50.060Z,5.55
2022-11-05T06:45:22.132Z,5.78
2022-11-05T06:45:54.858Z,6.57
2022-11-05T06:46:26.740Z,4.57
2022-11-05T06:46:58.614Z,6.62
2022-11-05T06:47:30.476Z,5.78
2022-11-05T06:48:02.328Z,6.78
2022-11-05T06:48:34.412Z,6.60
2022-11-05T06:49:06.530Z,5.35
2022-11-05T06:49:38.355Z,5.30
2022-11-05T06:50:10.238Z,5.37
2022-11-05T06:50:45.849Z,5.68
2022-11-05T06:51:17.711Z,8.07
2022-11-05T06:51:49.581Z,6.78
2022-11-05T06:52:21.392Z,6.28
2022-11-05T06:53:04.084Z,5.85
2022-11-05T06:53:36.544Z,5.85
2022-11-05T06:54:09.027Z,7.12
2022-11-05T06:54:42.396Z,5.45
2022-11-05T06:55:14.232Z,6.12
2022-11-05T06:55:47.945Z,6.90
2022-11-05T06:56:19.799Z,5.80
2022-11-05T06:56:51.659Z,6.40
2022-11-05T06:57:23.499Z,5.72
2022-11-05T06:57:55.782Z,6.10
2022-11-05T06:58:27.632Z,6.37
2022-11-05T06:58:59.525Z,7.68
2022-11-05T06:59:32.131Z,5.37
2022-11-05T07:00:07.819Z,6.00
2022-11-05T07:00:40.551Z,8.55
2022-11-05T07:01:12.569Z,8.07
2022-11-05T07:01:44.480Z,6.07
2022-11-05T07:02:18.020Z,10.15
2022-11-05T07:02:50.142Z,8.10
2022-11-05T07:03:21.984Z,5.55
2022-11-05T07:03:53.820Z,5.82
2022-11-05T07:04:25.673Z,8.18
2022-11-05T07:04:57.802Z,8.98
2022-11-05T07:05:29.810Z,5.00
2022-11-05T07:06:03.085Z,6.82
2022-11-05T07:06:37.102Z,7.70
2022-11-05T07:07:09.337Z,6.03
2022-11-05T07:07:42.964Z,7.82
2022-11-05T07:08:15.598Z,8.68
2022-11-05T07:08:47.447Z,6.57
2022-11-05T07:09:19.357Z,7.60
2022-11-05T07:09:52.775Z,7.05
2022-11-05T07:10:25.078Z,5.78
2022-11-05T07:10:57.005Z,6.07
2022-11-05T07:11:28.823Z,6.78
2022-11-05T07:12:00.651Z,6.62
2022-11-05T07:12:32.476Z,6.95
2022-11-05T07:13:08.152Z,6.60
2022-11-05T07:13:40.613Z,7.00
2022-11-05T07:14:12.517Z,4.95
2022-11-05T07:14:44.409Z,5.07
2022-11-05T07:15:16.282Z,7.45
2022-11-05T07:15:48.406Z,6.22
2022-11-05T07:16:20.238Z,5.07
2022-11-05T07:16:52.080Z,5.95
2022-11-05T07:17:23.961Z,6.62
2022-11-05T07:18:00.166Z,8.45
2022-11-05T07:18:32.005Z,5.20
2022-11-05T07:19:04.110Z,7.60
2022-11-05T07:19:35.934Z,5.87
2022-11-05T07:20:08.757Z,6.65
2022-11-05T07:20:40.645Z,5.03
2022-11-05T07:21:13.138Z,5.72
2022-11-05T07:21:45.948Z,5.57
2022-11-05T07:22:17.825Z,6.10
2022-11-05T07:22:49.670Z,4.18
2022-11-05T07:23:21.540Z,7.70
2022-11-05T07:23:53.355Z,5.72
2022-11-05T07:24:25.175Z,5.95
2022-11-05T07:24:57.026Z,6.03
2022-11-05T07:25:30.279Z,7.32
2022-11-05T07:26:02.332Z,4.68
2022-11-05T07:26:34.848Z,6.53
2022-11-05T07:27:06.717Z,5.72
2022-11-05T07:27:40.141Z,6.28
2022-11-05T07:28:12.155Z,7.68
2022-11-05T07:28:43.990Z,5.95
2022-11-05T07:29:15.865Z,4.68
2022-11-05T07:29:47.681Z,5.12
2022-11-05T07:30:19.501Z,4.82
2022-11-05T07:30:51.373Z,8.65
2022-11-05T07:31:23.534Z,4.70
2022-11-05T07:31:55.683Z,6.35
2022-11-05T07:32:27.507Z,5.35
2022-11-05T07:32:59.441Z,4.90
2022-11-05T07:33:36.363Z,5.37
2022-11-05T07:34:08.608Z,6.07
2022-11-05T07:34:40.516Z,4.95
2022-11-05T07:35:12.397Z,6.12
2022-11-05T07:35:44.227Z,6.10
2022-11-05T07:36:16.047Z,8.07
2022-11-05T07:36:47.877Z,6.18
2022-11-05T07:37:20.065Z,6.32
2022-11-05T07:37:54.065Z,5.47
2022-11-05T07:38:25.970Z,5.20
2022-11-05T07:39:00.523Z,6.95
2022-11-05T07:39:32.638Z,7.28
2022-11-05T07:40:05.337Z,4.80
2022-11-05T07:40:37.155Z,5.97
2022-11-05T07:41:08.986Z,4.65
2022-11-05T07:41:40.866Z,4.82
2022-11-05T07:42:13.925Z,6.15
2022-11-05T07:42:48.879Z,6.82
2022-11-05T07:43:20.707Z,5.60
2022-11-05T07:43:52.595Z,5.80
2022-11-05T07:44:24.833Z,5.95
2022-11-05T07:44:56.701Z,5.78
2022-11-05T07:45:30.671Z,5.82
2022-11-05T07:46:02.563Z,5.28
2022-11-05T07:46:34.791Z,5.82
2022-11-05T07:47:06.626Z,7.50
2022-11-05T07:47:47.929Z,7.85
2022-11-05T07:48:20.103Z,5.62
2022-11-05T07:48:51.920Z,10.13
2022-11-05T07:49:23.962Z,7.07
2022-11-05T07:49:55.797Z,5.65
2022-11-05T07:50:30.491Z,7.18
2022-11-05T07:51:02.363Z,5.22
2022-11-05T07:51:34.206Z,5.72
2022-11-05T07:52:06.055Z,6.10
2022-11-05T07:52:38.186Z,6.82
2022-11-05T07:53:13.572Z,6.65
2022-11-05T07:53:48.205Z,4.55
2022-11-05T07:54:20.042Z,5.55
2022-11-05T07:54:51.893Z,5.25
2022-11-05T07:55:23.700Z,4.78
2022-11-05T07:55:57.190Z,5.60
2022-11-05T07:56:28.970Z,5.07
2022-11-05T07:57:01.508Z,8.15
2022-11-05T07:57:43.682Z,6.55
2022-11-05T07:58:15.513Z,5.35
2022-11-05T07:58:47.685Z,5.55
2022-11-05T07:59:19.513Z,10.02
2022-11-05T07:59:51.364Z,8.38